Dunn, Texas
Current Conditions -  °F | °C
As of 8:35 PM on Tuesday 21 Oct 2014 (Local Time) from KSNK Reporting Station
Clear Clear  
Wind Chill: 66°   Ceiling: Unl
Heat Index: 66°   Visibility: 10mi
Dew Point: 51°   Wind: 9mph
Humidity: 59%   Direction: 140°SE
Pressure: 30.07"   Gusts: NA
Location:  32.57°N, 100.89°W
Report Text: KSNK 220135Z AUTO 14008KT 10SM CLR 19/11 A3007 RMK AO2 T01870106
Loading
Personal Weather Stations






























Interactive Weather Map New forecast layout! Learn more

10-Day Weather Forecast

Advertisements
Track Severe Weather on mobile